createdAt,value
2017-04-24T00:00:47.627Z,0.00
2017-04-24T00:01:35.197Z,0.00
2017-04-24T00:02:18.124Z,0.00
2017-04-24T00:03:05.619Z,0.00
2017-04-24T00:03:53.630Z,0.00
2017-04-24T00:04:41.500Z,0.00
2017-04-24T00:05:30.516Z,0.00
2017-04-24T00:06:18.370Z,0.00
2017-04-24T00:07:06.020Z,0.00
2017-04-24T00:07:49.307Z,0.00
2017-04-24T00:08:36.521Z,0.00
2017-04-24T00:09:24.460Z,0.00
2017-04-24T00:10:13.407Z,0.00
2017-04-24T00:11:00.873Z,0.00
2017-04-24T00:11:43.895Z,0.00
2017-04-24T00:12:31.438Z,0.00
2017-04-24T00:13:19.389Z,0.00
2017-04-24T00:14:02.346Z,0.00
2017-04-24T00:14:49.823Z,0.00
2017-04-24T00:15:32.810Z,0.00
2017-04-24T00:16:20.326Z,0.00
2017-04-24T00:17:08.280Z,0.00
2017-04-24T00:17:51.235Z,0.00
2017-04-24T00:18:44.741Z,0.00
2017-04-24T00:19:32.718Z,0.00
2017-04-24T00:20:20.637Z,0.00
2017-04-24T00:21:14.642Z,0.00
2017-04-24T00:21:57.539Z,0.00
2017-04-24T00:22:45.056Z,0.00
2017-04-24T00:23:33.077Z,0.00
2017-04-24T00:24:16.038Z,0.00
2017-04-24T00:25:03.552Z,0.00
2017-04-24T00:25:46.469Z,0.00
2017-04-24T00:26:33.973Z,0.00
2017-04-24T00:27:22.944Z,0.00
2017-04-24T00:28:10.499Z,0.00
2017-04-24T00:28:58.439Z,0.00
2017-04-24T00:29:41.452Z,0.00
2017-04-24T00:30:28.899Z,0.00
2017-04-24T00:31:16.858Z,0.00
2017-04-24T00:32:10.836Z,0.00
2017-04-24T00:33:10.743Z,0.00
2017-04-24T00:34:05.699Z,0.00
2017-04-24T00:35:05.217Z,0.00
2017-04-24T00:35:59.149Z,0.00
2017-04-24T00:36:59.099Z,0.00
2017-04-24T00:37:54.066Z,0.00
2017-04-24T00:38:53.563Z,0.00
2017-04-24T00:39:47.566Z,0.00
2017-04-24T00:40:47.438Z,0.00
2017-04-24T00:41:41.407Z,0.00
2017-04-24T00:42:35.332Z,0.00
2017-04-24T00:43:35.318Z,0.00
2017-04-24T00:44:41.218Z,0.00
2017-04-24T00:45:36.186Z,0.00
2017-04-24T00:46:30.868Z,0.00
2017-04-24T00:47:25.213Z,0.00
2017-04-24T00:48:25.336Z,0.00
2017-04-24T00:49:18.658Z,0.00
2017-04-24T00:50:19.637Z,0.00
2017-04-24T00:51:13.115Z,0.00
2017-04-24T00:52:13.171Z,0.00
2017-04-24T00:53:07.033Z,0.00
2017-04-24T00:54:06.949Z,0.00
2017-04-24T00:55:01.895Z,0.00
2017-04-24T00:55:56.423Z,0.00
2017-04-24T00:56:55.927Z,0.00
2017-04-24T00:57:49.929Z,0.00
2017-04-24T00:58:49.900Z,0.00
2017-04-24T00:59:43.823Z,0.00
2017-04-24T01:00:43.711Z,0.00
2017-04-24T01:01:43.681Z,0.00
2017-04-24T01:02:43.661Z,0.00
2017-04-24T01:03:37.573Z,0.00
2017-04-24T01:04:32.555Z,0.00
2017-04-24T01:05:26.048Z,0.00
2017-04-24T01:06:20.973Z,0.00
2017-04-24T01:07:20.447Z,0.00
2017-04-24T01:08:14.460Z,0.00
2017-04-24T01:09:08.488Z,0.00
2017-04-24T01:10:08.363Z,0.00
2017-04-24T01:11:03.270Z,0.00
2017-04-24T01:11:57.820Z,0.00
2017-04-24T01:12:52.294Z,0.00
2017-04-24T01:13:51.841Z,0.00
2017-04-24T01:14:45.777Z,0.00
2017-04-24T01:15:45.723Z,0.00
2017-04-24T01:16:40.679Z,0.00
2017-04-24T01:17:40.189Z,0.00
2017-04-24T01:18:35.140Z,0.00
2017-04-24T01:19:29.642Z,0.00
2017-04-24T01:20:29.215Z,0.00
2017-04-24T01:21:23.144Z,0.00
2017-04-24T01:22:23.041Z,0.00
2017-04-24T01:23:16.972Z,0.00
2017-04-24T01:24:10.923Z,0.00
2017-04-24T01:24:59.863Z,0.00
2017-04-24T01:25:54.405Z,0.00
2017-04-24T01:26:53.912Z,0.00
2017-04-24T01:27:53.876Z,0.00
2017-04-24T01:28:48.821Z,0.00
2017-04-24T01:29:54.316Z,0.00
2017-04-24T01:30:48.288Z,0.00
2017-04-24T01:31:48.175Z,0.00
2017-04-24T01:32:42.162Z,0.00
2017-04-24T01:33:42.082Z,0.00
2017-04-24T01:34:36.073Z,0.00
2017-04-24T01:35:36.954Z,0.00
2017-04-24T01:36:37.466Z,0.00
2017-04-24T01:37:32.005Z,0.00
2017-04-24T01:38:31.524Z,0.00
2017-04-24T01:39:31.426Z,0.00
2017-04-24T01:40:27.010Z,0.00
2017-04-24T01:41:20.941Z,0.00
2017-04-24T01:42:20.404Z,0.00
2017-04-24T01:43:15.504Z,0.00
2017-04-24T01:44:14.863Z,0.00
2017-04-24T01:45:14.848Z,0.00
2017-04-24T01:46:09.724Z,0.00
2017-04-24T01:47:09.296Z,0.00
2017-04-24T01:47:58.244Z,0.00
2017-04-24T01:48:57.788Z,0.00
2017-04-24T01:49:57.662Z,0.00
2017-04-24T01:50:52.618Z,0.00
2017-04-24T01:51:58.146Z,0.00
2017-04-24T01:52:52.067Z,0.00
2017-04-24T01:53:47.053Z,0.00
2017-04-24T01:54:46.760Z,0.00
2017-04-24T01:55:35.442Z,0.00
2017-04-24T01:56:35.046Z,0.00
2017-04-24T01:57:34.936Z,0.00
2017-04-24T01:58:34.917Z,0.00
2017-04-24T01:59:23.870Z,0.00
2017-04-24T02:00:23.356Z,0.00
2017-04-24T02:01:23.311Z,0.00
2017-04-24T02:02:18.258Z,0.00
2017-04-24T02:03:17.783Z,0.00
2017-04-24T02:04:05.769Z,0.00
2017-04-24T02:04:59.649Z,0.00
2017-04-24T02:05:48.619Z,0.00
2017-04-24T02:06:48.145Z,0.00
2017-04-24T02:07:42.096Z,0.00
2017-04-24T02:08:37.023Z,0.00
2017-04-24T02:09:36.574Z,0.00
2017-04-24T02:10:31.447Z,0.00
2017-04-24T02:11:37.000Z,0.00
2017-04-24T02:12:30.944Z,0.00
2017-04-24T02:13:19.946Z,0.00
2017-04-24T02:14:19.377Z,0.00
2017-04-24T02:15:13.313Z,0.00
2017-04-24T02:16:13.315Z,0.00
2017-04-24T02:17:07.228Z,0.00
2017-04-24T02:18:01.146Z,0.00
2017-04-24T02:19:01.154Z,0.00
2017-04-24T02:20:01.085Z,0.00
2017-04-24T02:20:56.011Z,0.00
2017-04-24T02:22:01.520Z,0.00
2017-04-24T02:22:56.444Z,0.00
2017-04-24T02:23:55.966Z,0.00
2017-04-24T02:24:49.930Z,0.00
2017-04-24T02:25:49.864Z,0.00
2017-04-24T02:26:43.813Z,0.00
2017-04-24T02:27:37.849Z,0.00
2017-04-24T02:28:20.715Z,0.00
2017-04-24T02:29:20.251Z,0.00
2017-04-24T02:30:15.182Z,0.00
2017-04-24T02:31:09.626Z,0.00
2017-04-24T02:32:04.239Z,0.00
2017-04-24T02:32:58.749Z,0.00
2017-04-24T02:33:58.215Z,0.00
2017-04-24T02:34:53.140Z,0.00
2017-04-24T02:35:52.650Z,0.00
2017-04-24T02:36:52.645Z,0.00
2017-04-24T02:37:46.531Z,0.00
2017-04-24T02:38:46.626Z,0.00
2017-04-24T02:39:46.500Z,0.00
2017-04-24T02:40:46.392Z,0.00
2017-04-24T02:41:41.333Z,0.00
2017-04-24T02:42:40.869Z,0.00
2017-04-24T02:43:34.834Z,0.00
2017-04-24T02:44:34.709Z,0.00
2017-04-24T02:45:28.800Z,0.00
2017-04-24T02:46:35.226Z,0.00
2017-04-24T02:47:28.550Z,0.00
2017-04-24T02:48:34.532Z,0.00
2017-04-24T02:49:28.466Z,0.00
2017-04-24T02:50:28.409Z,0.00
2017-04-24T02:51:22.338Z,0.00
2017-04-24T02:52:22.256Z,0.00
2017-04-24T02:53:17.226Z,0.00
2017-04-24T02:54:16.783Z,0.00
2017-04-24T02:55:10.763Z,0.00
2017-04-24T02:56:05.221Z,0.00
2017-04-24T02:57:06.165Z,0.00
2017-04-24T02:58:00.741Z,0.00
2017-04-24T02:58:55.222Z,0.00
2017-04-24T02:59:49.694Z,0.00
2017-04-24T03:00:49.219Z,0.00
2017-04-24T03:01:43.163Z,0.00
2017-04-24T03:02:31.139Z,0.00
2017-04-24T03:03:20.101Z,0.00
2017-04-24T03:04:07.668Z,0.00
2017-04-24T03:04:55.635Z,0.00
2017-04-24T03:05:44.459Z,0.00
2017-04-24T03:06:32.023Z,0.00
2017-04-24T03:07:14.974Z,0.00
2017-04-24T03:08:02.482Z,0.00
2017-04-24T03:08:50.470Z,0.00
2017-04-24T03:09:38.376Z,0.00
2017-04-24T03:10:27.366Z,0.00
2017-04-24T03:11:14.849Z,0.00
2017-04-24T03:12:02.865Z,0.00
2017-04-24T03:12:50.779Z,0.00
2017-04-24T03:13:38.763Z,0.00
2017-04-24T03:14:27.705Z,0.00
2017-04-24T03:15:15.202Z,0.00
2017-04-24T03:16:03.177Z,0.00
2017-04-24T03:16:52.155Z,0.00
2017-04-24T03:17:45.614Z,0.00
2017-04-24T03:18:40.596Z,0.00
2017-04-24T03:19:35.117Z,0.00
2017-04-24T03:20:34.619Z,0.00
2017-04-24T03:21:36.140Z,0.00
2017-04-24T03:22:35.106Z,0.00
2017-04-24T03:23:30.064Z,0.00
2017-04-24T03:24:29.526Z,0.00
2017-04-24T03:25:23.485Z,0.00
2017-04-24T03:26:18.401Z,0.00
2017-04-24T03:27:17.901Z,0.00
2017-04-24T03:28:12.881Z,0.00
2017-04-24T03:29:18.378Z,0.00
2017-04-24T03:30:06.324Z,0.00
2017-04-24T03:30:54.325Z,0.00
2017-04-24T03:31:42.240Z,0.00
2017-04-24T03:32:37.182Z,0.00
2017-04-24T03:33:25.718Z,0.00
2017-04-24T03:34:13.206Z,0.00
2017-04-24T03:34:56.152Z,0.00
2017-04-24T03:35:44.728Z,0.00
2017-04-24T03:36:33.182Z,0.00
2017-04-24T03:37:26.735Z,0.00
2017-04-24T03:38:32.667Z,0.00
2017-04-24T03:39:26.615Z,0.00
2017-04-24T03:40:20.549Z,0.00
2017-04-24T03:41:20.436Z,0.00
2017-04-24T03:42:15.442Z,0.00
2017-04-24T03:43:09.950Z,0.00
2017-04-24T03:44:04.447Z,0.00
2017-04-24T03:45:03.950Z,0.00
2017-04-24T03:45:58.939Z,0.00
2017-04-24T03:46:58.447Z,0.00
2017-04-24T03:47:58.325Z,0.00
2017-04-24T03:48:52.326Z,0.00
2017-04-24T03:49:46.289Z,0.00
2017-04-24T03:50:46.240Z,0.00
2017-04-24T03:51:40.165Z,0.00
2017-04-24T03:52:40.107Z,0.00
2017-04-24T03:53:34.049Z,0.00
2017-04-24T03:54:28.029Z,0.00
2017-04-24T03:55:16.922Z,0.00
2017-04-24T03:56:05.474Z,0.00
2017-04-24T03:56:59.004Z,0.00
2017-04-24T03:57:46.958Z,0.00
2017-04-24T03:58:41.890Z,0.00
2017-04-24T03:59:35.406Z,0.00
2017-04-24T04:00:35.321Z,0.00
2017-04-24T04:01:24.331Z,0.00
2017-04-24T04:02:18.792Z,0.00
2017-04-24T04:03:12.348Z,0.00
2017-04-24T04:04:01.339Z,0.00
2017-04-24T04:04:48.800Z,0.00
2017-04-24T04:05:31.797Z,0.00
2017-04-24T04:06:20.309Z,0.00
2017-04-24T04:07:13.799Z,0.00
2017-04-24T04:08:13.794Z,0.00
2017-04-24T04:09:07.747Z,0.00
2017-04-24T04:10:08.614Z,0.00
2017-04-24T04:11:02.166Z,0.00
2017-04-24T04:11:56.195Z,0.00
2017-04-24T04:12:45.051Z,0.00
2017-04-24T04:13:44.514Z,0.00
2017-04-24T04:14:39.794Z,0.00
2017-04-24T04:15:33.072Z,0.00
2017-04-24T04:16:32.911Z,0.01
2017-04-24T04:17:21.921Z,0.01
2017-04-24T04:18:16.379Z,0.01
2017-04-24T04:19:15.955Z,0.01
2017-04-24T04:20:15.903Z,0.01
2017-04-24T04:21:11.417Z,0.01
2017-04-24T04:22:10.349Z,0.01
2017-04-24T04:23:04.270Z,0.01
2017-04-24T04:24:04.257Z,0.01
2017-04-24T04:24:58.207Z,0.01
2017-04-24T04:25:53.155Z,0.01
2017-04-24T04:26:52.604Z,0.01
2017-04-24T04:27:47.611Z,0.01
2017-04-24T04:28:47.108Z,0.02
2017-04-24T04:29:41.035Z,0.02
2017-04-24T04:30:34.988Z,0.02
2017-04-24T04:31:23.911Z,0.02
2017-04-24T04:32:29.816Z,0.02
2017-04-24T04:33:18.470Z,0.02
2017-04-24T04:34:06.925Z,0.02
2017-04-24T04:35:06.421Z,0.02
2017-04-24T04:36:00.376Z,0.02
2017-04-24T04:36:55.355Z,0.02
2017-04-24T04:37:54.866Z,0.02
2017-04-24T04:38:48.830Z,0.02
2017-04-24T04:39:48.764Z,0.02
2017-04-24T04:40:36.709Z,0.03
2017-04-24T04:41:30.637Z,0.03
2017-04-24T04:42:24.614Z,0.03
2017-04-24T04:43:24.518Z,0.03
2017-04-24T04:44:24.445Z,0.03
2017-04-24T04:45:19.439Z,0.03
2017-04-24T04:46:14.635Z,0.03
2017-04-24T04:47:08.426Z,0.03
2017-04-24T04:48:08.944Z,0.04
2017-04-24T04:49:03.425Z,0.04
2017-04-24T04:49:58.030Z,0.04
2017-04-24T04:50:57.457Z,0.04
2017-04-24T04:51:57.471Z,0.04
2017-04-24T04:52:46.395Z,0.04
2017-04-24T04:53:51.906Z,0.05
2017-04-24T04:54:40.828Z,0.05
2017-04-24T04:55:35.344Z,0.05
2017-04-24T04:56:29.487Z,0.05
2017-04-24T04:57:23.852Z,0.05
2017-04-24T04:58:17.318Z,0.05
2017-04-24T04:59:11.329Z,0.05
2017-04-24T05:00:06.271Z,0.05
2017-04-24T05:01:12.361Z,0.05
2017-04-24T05:02:05.730Z,0.05
2017-04-24T05:03:00.636Z,0.06
2017-04-24T05:03:55.151Z,0.06
2017-04-24T05:04:43.714Z,0.06
2017-04-24T05:05:44.209Z,0.06
2017-04-24T05:06:44.103Z,0.06
2017-04-24T05:07:38.589Z,0.06
2017-04-24T05:08:33.155Z,0.07
2017-04-24T05:09:32.636Z,0.07
2017-04-24T05:10:26.600Z,0.07
2017-04-24T05:11:21.560Z,0.08
2017-04-24T05:12:21.086Z,0.08
2017-04-24T05:13:16.009Z,0.08
2017-04-24T05:14:15.520Z,0.08
2017-04-24T05:15:09.517Z,0.08
2017-04-24T05:15:52.654Z,0.08
2017-04-24T05:16:45.995Z,0.07
2017-04-24T05:17:39.958Z,0.06
2017-04-24T05:18:33.905Z,0.06
2017-04-24T05:19:22.875Z,0.06
2017-04-24T05:20:22.341Z,0.06
2017-04-24T05:21:22.315Z,0.06
2017-04-24T05:22:17.259Z,0.07
2017-04-24T05:23:11.741Z,0.07
2017-04-24T05:23:59.330Z,0.07
2017-04-24T05:24:59.258Z,0.07
2017-04-24T05:25:54.228Z,0.07
2017-04-24T05:26:53.730Z,0.07
2017-04-24T05:27:53.666Z,0.07
2017-04-24T05:28:47.645Z,0.08
2017-04-24T05:29:47.565Z,0.08
2017-04-24T05:30:36.508Z,0.08
2017-04-24T05:31:37.027Z,0.08
2017-04-24T05:32:30.839Z,0.08
2017-04-24T05:33:19.471Z,0.08
2017-04-24T05:34:13.034Z,0.08
2017-04-24T05:35:01.951Z,0.08
2017-04-24T05:35:55.515Z,0.08
2017-04-24T05:36:44.415Z,0.09
2017-04-24T05:37:43.961Z,0.09
2017-04-24T05:38:44.906Z,0.09
2017-04-24T05:39:44.419Z,0.09
2017-04-24T05:40:38.346Z,0.09
2017-04-24T05:41:38.308Z,0.09
2017-04-24T05:42:38.225Z,0.09
2017-04-24T05:43:38.280Z,0.10
2017-04-24T05:44:38.098Z,0.10
2017-04-24T05:45:38.138Z,0.10
2017-04-24T05:46:27.061Z,0.10
2017-04-24T05:47:15.601Z,0.11
2017-04-24T05:48:03.161Z,0.11
2017-04-24T05:48:46.142Z,0.11
2017-04-24T05:49:33.631Z,0.11
2017-04-24T05:50:21.601Z,0.11
2017-04-24T05:51:04.551Z,0.11
2017-04-24T05:51:58.027Z,0.11
2017-04-24T05:52:51.976Z,0.11
2017-04-24T05:53:39.967Z,0.11
2017-04-24T05:54:34.974Z,0.12
2017-04-24T05:55:29.450Z,0.12
2017-04-24T05:56:23.938Z,0.13
2017-04-24T05:57:23.471Z,0.13
2017-04-24T05:58:12.422Z,0.13
2017-04-24T05:59:06.962Z,0.14
2017-04-24T06:00:06.790Z,0.14
2017-04-24T06:01:01.568Z,0.16
2017-04-24T06:02:01.356Z,0.16
2017-04-24T06:02:49.877Z,0.15
2017-04-24T06:03:43.418Z,0.16
2017-04-24T06:04:44.366Z,0.16
2017-04-24T06:05:31.924Z,0.16
2017-04-24T06:06:19.848Z,0.15
2017-04-24T06:07:08.803Z,0.15
2017-04-24T06:07:57.318Z,0.14
2017-04-24T06:08:50.844Z,0.14
2017-04-24T06:09:44.841Z,0.13
2017-04-24T06:10:39.779Z,0.13
2017-04-24T06:11:39.259Z,0.12
2017-04-24T06:12:33.239Z,0.12
2017-04-24T06:13:33.130Z,0.12
2017-04-24T06:14:22.159Z,0.12
2017-04-24T06:15:27.620Z,0.12
2017-04-24T06:16:21.568Z,0.12
2017-04-24T06:17:22.595Z,0.12
2017-04-24T06:18:22.045Z,0.12
2017-04-24T06:19:10.004Z,0.12
2017-04-24T06:19:52.923Z,0.12
2017-04-24T06:20:41.513Z,0.12
2017-04-24T06:21:30.045Z,0.11
2017-04-24T06:22:29.522Z,0.11
2017-04-24T06:23:18.444Z,0.11
2017-04-24T06:24:18.093Z,0.11
2017-04-24T06:25:00.958Z,0.11
2017-04-24T06:25:54.472Z,0.12
2017-04-24T06:26:55.441Z,0.12
2017-04-24T06:27:44.010Z,0.13
2017-04-24T06:28:37.490Z,0.14
2017-04-24T06:29:38.446Z,0.15
2017-04-24T06:30:31.966Z,0.16
2017-04-24T06:31:26.921Z,0.16
2017-04-24T06:32:15.456Z,0.16
2017-04-24T06:33:09.939Z,0.16
2017-04-24T06:33:58.519Z,0.16
2017-04-24T06:34:53.030Z,0.16
2017-04-24T06:35:41.536Z,0.16
2017-04-24T06:36:36.083Z,0.16
2017-04-24T06:37:30.621Z,0.17
2017-04-24T06:38:24.085Z,0.17
2017-04-24T06:39:24.083Z,0.18
2017-04-24T06:40:12.036Z,0.18
2017-04-24T06:41:06.950Z,0.18
2017-04-24T06:42:00.492Z,0.18
2017-04-24T06:43:00.479Z,0.18
2017-04-24T06:43:54.408Z,0.18
2017-04-24T06:44:43.401Z,0.18
2017-04-24T06:45:37.848Z,0.19
2017-04-24T06:46:31.405Z,0.19
2017-04-24T06:47:31.349Z,0.20
2017-04-24T06:48:20.350Z,0.20
2017-04-24T06:49:19.872Z,0.20
2017-04-24T06:50:13.786Z,0.20
2017-04-24T06:51:07.742Z,0.20
2017-04-24T06:51:56.709Z,0.20
2017-04-24T06:52:45.274Z,0.20
2017-04-24T06:53:38.887Z,0.20
2017-04-24T06:54:32.728Z,0.19
2017-04-24T06:55:21.664Z,0.19
2017-04-24T06:56:21.155Z,0.18
2017-04-24T06:57:10.124Z,0.18
2017-04-24T06:58:04.660Z,0.18
2017-04-24T06:59:10.425Z,0.17
2017-04-24T06:59:59.144Z,0.17
2017-04-24T07:00:52.649Z,0.17
2017-04-24T07:01:47.798Z,0.17
2017-04-24T07:02:36.129Z,0.18
2017-04-24T07:03:30.665Z,0.18
2017-04-24T07:04:24.565Z,0.18
2017-04-24T07:05:13.159Z,0.18
2017-04-24T07:06:06.675Z,0.19
2017-04-24T07:06:55.604Z,0.19
2017-04-24T07:07:44.168Z,0.20
2017-04-24T07:08:38.698Z,0.20
2017-04-24T07:09:33.723Z,0.21
2017-04-24T07:10:27.701Z,0.21
2017-04-24T07:11:16.903Z,0.21
2017-04-24T07:12:09.763Z,0.22
2017-04-24T07:13:03.738Z,0.22
2017-04-24T07:13:57.726Z,0.22
2017-04-24T07:14:45.951Z,0.22
2017-04-24T07:15:33.628Z,0.22
2017-04-24T07:16:33.559Z,0.22
2017-04-24T07:17:22.594Z,0.22
2017-04-24T07:18:11.053Z,0.22
2017-04-24T07:18:59.631Z,0.21
2017-04-24T07:19:48.474Z,0.20
2017-04-24T07:20:41.636Z,0.20
2017-04-24T07:21:35.670Z,0.20
2017-04-24T07:22:24.582Z,0.20
2017-04-24T07:23:25.151Z,0.22
2017-04-24T07:24:12.616Z,0.21
2017-04-24T07:25:01.654Z,0.19
2017-04-24T07:25:50.116Z,0.18
2017-04-24T07:26:38.638Z,0.18
2017-04-24T07:27:27.165Z,0.18
2017-04-24T07:28:20.762Z,0.19
2017-04-24T07:29:14.663Z,0.20
2017-04-24T07:30:09.677Z,0.20
2017-04-24T07:31:04.127Z,0.20
2017-04-24T07:31:57.664Z,0.21
2017-04-24T07:32:51.646Z,0.22
2017-04-24T07:33:40.596Z,0.24
2017-04-24T07:34:28.147Z,0.26
2017-04-24T07:35:23.080Z,0.28
2017-04-24T07:36:10.616Z,0.29
2017-04-24T07:37:10.541Z,0.30
2017-04-24T07:37:58.491Z,0.30
2017-04-24T07:38:46.472Z,0.28
2017-04-24T07:39:35.372Z,0.27
2017-04-24T07:40:34.985Z,0.26
2017-04-24T07:41:18.573Z,0.26
2017-04-24T07:42:11.458Z,0.26
2017-04-24T07:43:05.388Z,0.24
2017-04-24T07:43:54.342Z,0.23
2017-04-24T07:44:41.921Z,0.22
2017-04-24T07:45:29.856Z,0.22
2017-04-24T07:46:19.489Z,0.22
2017-04-24T07:47:07.366Z,0.23
2017-04-24T07:48:00.898Z,0.24
2017-04-24T07:48:48.859Z,0.27
2017-04-24T07:49:43.844Z,0.28
2017-04-24T07:50:32.342Z,0.29
2017-04-24T07:51:20.835Z,0.29
2017-04-24T07:52:14.421Z,0.30
2017-04-24T07:53:08.336Z,0.31
2017-04-24T07:53:57.350Z,0.32
2017-04-24T07:54:51.846Z,0.31
2017-04-24T07:55:51.386Z,0.31
2017-04-24T07:56:45.933Z,0.32
2017-04-24T07:57:33.352Z,0.33
2017-04-24T07:58:28.273Z,0.34
2017-04-24T07:59:15.816Z,0.34
2017-04-24T08:00:09.767Z,0.36
2017-04-24T08:00:58.710Z,0.31
2017-04-24T08:01:53.538Z,0.31
2017-04-24T08:02:40.761Z,0.30
2017-04-24T08:03:23.747Z,0.29
2017-04-24T08:04:18.242Z,0.28
2017-04-24T08:05:12.821Z,0.29
2017-04-24T08:06:00.317Z,0.29
2017-04-24T08:06:49.546Z,0.32
2017-04-24T08:07:43.847Z,0.35
2017-04-24T08:08:44.328Z,0.36
2017-04-24T08:09:43.805Z,0.33
2017-04-24T08:10:37.807Z,0.31
2017-04-24T08:11:26.811Z,0.31
2017-04-24T08:12:20.340Z,0.32
2017-04-24T08:13:15.323Z,0.32
2017-04-24T08:14:02.812Z,0.34
2017-04-24T08:14:56.755Z,0.35
2017-04-24T08:15:50.680Z,0.35
2017-04-24T08:16:44.714Z,0.33
2017-04-24T08:17:33.923Z,0.34
2017-04-24T08:18:33.146Z,0.36
2017-04-24T08:19:22.177Z,0.39
2017-04-24T08:20:16.696Z,0.40
2017-04-24T08:21:11.168Z,0.43
2017-04-24T08:22:05.715Z,0.69
2017-04-24T08:22:59.640Z,0.53
2017-04-24T08:23:54.315Z,0.51
2017-04-24T08:24:47.753Z,0.47
2017-04-24T08:25:42.713Z,0.50
2017-04-24T08:26:30.225Z,0.47
2017-04-24T08:27:19.221Z,0.40
2017-04-24T08:28:08.126Z,0.39
2017-04-24T08:28:56.759Z,0.42
2017-04-24T08:29:49.814Z,0.51
2017-04-24T08:30:49.807Z,0.47
2017-04-24T08:31:43.720Z,0.43
2017-04-24T08:32:33.087Z,0.44
2017-04-24T08:33:21.263Z,0.51
2017-04-24T08:34:14.874Z,0.48
2017-04-24T08:35:15.762Z,0.67
2017-04-24T08:36:04.315Z,0.50
2017-04-24T08:36:58.840Z,0.49
2017-04-24T08:37:53.450Z,0.59
2017-04-24T08:38:53.151Z,0.48
2017-04-24T08:39:41.853Z,0.48
2017-04-24T08:40:36.415Z,0.50
2017-04-24T08:41:24.849Z,0.51
2017-04-24T08:42:12.394Z,0.80
2017-04-24T08:43:06.423Z,0.76
2017-04-24T08:43:49.892Z,0.52
2017-04-24T08:44:43.945Z,0.39
2017-04-24T08:45:43.497Z,0.39
2017-04-24T08:46:32.672Z,0.38
2017-04-24T08:47:31.935Z,0.39
2017-04-24T08:48:20.987Z,0.43
2017-04-24T08:49:14.776Z,0.73
2017-04-24T08:50:09.791Z,0.58
2017-04-24T08:50:58.060Z,0.77
2017-04-24T08:51:46.483Z,0.75
2017-04-24T08:52:41.045Z,0.72
2017-04-24T08:53:35.142Z,0.78
2017-04-24T08:54:24.004Z,0.79
2017-04-24T08:55:18.316Z,0.53
2017-04-24T08:56:12.588Z,0.44
2017-04-24T08:57:06.628Z,0.53
2017-04-24T08:57:49.558Z,0.71
2017-04-24T08:58:42.666Z,0.69
2017-04-24T08:59:31.617Z,0.55
2017-04-24T09:00:25.210Z,0.49
2017-04-24T09:01:19.808Z,0.58
2017-04-24T09:02:08.437Z,0.68
2017-04-24T09:02:56.697Z,0.68
2017-04-24T09:03:51.224Z,0.70
2017-04-24T09:04:45.733Z,0.73
2017-04-24T09:05:33.837Z,0.73
2017-04-24T09:06:28.302Z,0.71
2017-04-24T09:07:16.870Z,0.72
2017-04-24T09:08:11.460Z,0.27
2017-04-24T09:08:59.053Z,0.76
2017-04-24T09:09:53.383Z,0.75
2017-04-24T09:10:42.091Z,0.75
2017-04-24T09:11:35.362Z,0.76
2017-04-24T09:12:30.485Z,0.74
2017-04-24T09:13:18.867Z,0.75
2017-04-24T09:14:19.035Z,0.73
2017-04-24T09:15:06.405Z,0.74
2017-04-24T09:15:55.824Z,0.76
2017-04-24T09:16:48.915Z,0.74
2017-04-24T09:17:37.904Z,0.28
2017-04-24T09:18:25.400Z,0.63
2017-04-24T09:19:19.413Z,0.78
2017-04-24T09:20:13.888Z,0.76
2017-04-24T09:21:09.113Z,0.67
2017-04-24T09:21:55.860Z,0.74
2017-04-24T09:22:44.796Z,0.72
2017-04-24T09:23:38.439Z,0.72
2017-04-24T09:24:27.362Z,0.25
2017-04-24T09:25:20.869Z,0.73
2017-04-24T09:26:09.371Z,0.75
2017-04-24T09:27:03.174Z,0.77
2017-04-24T09:27:56.804Z,0.24
2017-04-24T09:28:50.803Z,0.72
2017-04-24T09:29:44.756Z,0.72
2017-04-24T09:30:39.747Z,0.75
2017-04-24T09:31:33.789Z,0.75
2017-04-24T09:32:21.343Z,0.76
2017-04-24T09:33:09.305Z,0.79
2017-04-24T09:34:03.227Z,0.76
2017-04-24T09:34:51.204Z,0.78
2017-04-24T09:35:39.184Z,0.24
2017-04-24T09:36:33.737Z,0.23
2017-04-24T09:37:21.141Z,0.78
2017-04-24T09:38:10.073Z,0.79
2017-04-24T09:38:57.632Z,0.81
2017-04-24T09:39:46.888Z,0.79
2017-04-24T09:40:40.158Z,0.81
2017-04-24T09:41:28.154Z,0.80
2017-04-24T09:42:16.697Z,0.81
2017-04-24T09:43:04.505Z,0.27
2017-04-24T09:43:58.376Z,0.82
2017-04-24T09:44:53.443Z,0.81
2017-04-24T09:45:46.711Z,0.81
2017-04-24T09:46:34.740Z,0.77
2017-04-24T09:47:22.777Z,0.78
2017-04-24T09:48:11.553Z,0.77
2017-04-24T09:49:05.392Z,0.22
2017-04-24T09:49:59.442Z,0.23
2017-04-24T09:50:48.388Z,0.81
2017-04-24T09:51:42.511Z,0.82
2017-04-24T09:52:31.347Z,0.83
2017-04-24T09:53:24.850Z,0.83
2017-04-24T09:54:18.634Z,0.82
2017-04-24T09:55:06.739Z,0.62
2017-04-24T09:56:00.536Z,0.85
2017-04-24T09:56:50.092Z,0.32
2017-04-24T09:57:44.509Z,0.87
2017-04-24T09:58:38.802Z,0.47
2017-04-24T09:59:32.439Z,0.67
2017-04-24T10:00:32.683Z,0.26
2017-04-24T10:01:32.554Z,0.83
2017-04-24T10:02:21.566Z,0.88
2017-04-24T10:03:14.989Z,0.95
2017-04-24T10:04:08.786Z,0.94
2017-04-24T10:04:56.711Z,0.95
2017-04-24T10:05:50.805Z,0.96
2017-04-24T10:06:44.533Z,0.90
2017-04-24T10:07:39.512Z,0.87
2017-04-24T10:08:39.458Z,1.01
2017-04-24T10:09:28.007Z,0.66
2017-04-24T10:10:21.826Z,0.86
2017-04-24T10:11:10.505Z,0.69
2017-04-24T10:12:10.480Z,0.34
2017-04-24T10:13:04.482Z,0.47
2017-04-24T10:14:04.437Z,0.93
2017-04-24T10:14:53.463Z,0.97
2017-04-24T10:15:47.088Z,0.98
2017-04-24T10:16:41.815Z,1.04
2017-04-24T10:17:29.429Z,0.97
2017-04-24T10:18:18.504Z,1.04
2017-04-24T10:19:13.209Z,1.02
2017-04-24T10:20:01.116Z,1.02
2017-04-24T10:20:50.221Z,1.03
2017-04-24T10:21:49.531Z,0.82
2017-04-24T10:22:37.732Z,0.78
2017-04-24T10:23:37.680Z,0.67
2017-04-24T10:24:32.729Z,0.55
2017-04-24T10:25:20.842Z,0.71
2017-04-24T10:26:20.851Z,0.85
2017-04-24T10:27:14.749Z,0.81
2017-04-24T10:28:09.675Z,0.62
2017-04-24T10:29:04.031Z,0.70
2017-04-24T10:29:58.775Z,0.85
2017-04-24T10:30:51.974Z,0.72
2017-04-24T10:31:40.129Z,0.82
2017-04-24T10:32:28.027Z,0.83
2017-04-24T10:33:17.081Z,0.60
2017-04-24T10:34:11.320Z,0.83
2017-04-24T10:35:05.188Z,0.99
2017-04-24T10:35:52.806Z,0.70
2017-04-24T10:36:47.589Z,0.59
2017-04-24T10:37:35.296Z,0.58
2017-04-24T10:38:23.864Z,0.99
2017-04-24T10:39:12.673Z,0.57
2017-04-24T10:40:01.215Z,0.64
2017-04-24T10:40:54.927Z,0.79
2017-04-24T10:41:42.944Z,0.71
2017-04-24T10:42:26.150Z,1.00
2017-04-24T10:43:14.285Z,0.73
2017-04-24T10:44:02.607Z,0.61
2017-04-24T10:44:57.326Z,0.66
2017-04-24T10:45:45.765Z,0.58
2017-04-24T10:46:39.646Z,0.84
2017-04-24T10:47:34.084Z,0.83
2017-04-24T10:48:28.054Z,1.08
2017-04-24T10:49:23.086Z,0.66
2017-04-24T10:50:22.668Z,0.94
2017-04-24T10:51:10.450Z,0.84
2017-04-24T10:51:58.605Z,0.80
2017-04-24T10:52:47.554Z,1.00
2017-04-24T10:53:41.840Z,1.06
2017-04-24T10:54:35.597Z,0.91
2017-04-24T10:55:23.129Z,0.72
2017-04-24T10:56:11.513Z,0.45
2017-04-24T10:57:06.590Z,0.42
2017-04-24T10:57:59.833Z,0.43
2017-04-24T10:58:48.736Z,0.40
2017-04-24T10:59:42.139Z,0.39
2017-04-24T11:00:36.308Z,0.39
2017-04-24T11:01:24.763Z,0.36
2017-04-24T11:02:13.511Z,0.38
2017-04-24T11:03:07.236Z,0.32
2017-04-24T11:03:56.081Z,0.31
2017-04-24T11:04:49.590Z,0.38
2017-04-24T11:05:43.565Z,0.44
2017-04-24T11:06:37.525Z,0.56
2017-04-24T11:07:31.432Z,0.67
2017-04-24T11:08:20.884Z,0.60
2017-04-24T11:09:08.083Z,0.47
2017-04-24T11:10:01.739Z,0.40
2017-04-24T11:10:55.868Z,0.40
2017-04-24T11:11:49.728Z,0.41
2017-04-24T11:12:39.007Z,0.40
2017-04-24T11:13:33.052Z,0.40
2017-04-24T11:14:33.042Z,0.42
2017-04-24T11:15:21.484Z,0.63
2017-04-24T11:16:21.559Z,0.91
2017-04-24T11:17:16.143Z,1.09
2017-04-24T11:18:10.087Z,1.13
2017-04-24T11:19:03.914Z,0.63
2017-04-24T11:19:51.512Z,0.50
2017-04-24T11:20:46.960Z,0.56
2017-04-24T11:21:40.400Z,0.54
2017-04-24T11:22:35.476Z,0.53
2017-04-24T11:23:28.859Z,0.46
2017-04-24T11:24:18.451Z,0.43
2017-04-24T11:25:11.164Z,0.42
2017-04-24T11:26:00.410Z,0.40
2017-04-24T11:26:54.979Z,0.41
2017-04-24T11:27:49.617Z,0.44
2017-04-24T11:28:36.813Z,0.43
2017-04-24T11:29:37.046Z,0.39
2017-04-24T11:30:25.556Z,0.38
2017-04-24T11:31:14.089Z,0.37
2017-04-24T11:32:14.012Z,0.33
2017-04-24T11:33:02.616Z,0.32
2017-04-24T11:33:56.165Z,0.29
2017-04-24T11:34:51.391Z,0.34
2017-04-24T11:35:44.733Z,0.30
2017-04-24T11:36:34.250Z,0.38
2017-04-24T11:37:27.475Z,0.31
2017-04-24T11:38:21.123Z,0.29
2017-04-24T11:39:10.141Z,0.29
2017-04-24T11:40:04.675Z,0.34
2017-04-24T11:40:59.206Z,0.95
2017-04-24T11:41:52.725Z,0.47
2017-04-24T11:42:47.730Z,0.52
2017-04-24T11:43:41.221Z,0.43
2017-04-24T11:44:30.249Z,0.42
2017-04-24T11:45:25.101Z,0.35
2017-04-24T11:46:18.521Z,0.97
2017-04-24T11:47:07.265Z,0.98
2017-04-24T11:47:55.856Z,0.38
2017-04-24T11:48:50.344Z,1.00
2017-04-24T11:49:44.833Z,0.71
2017-04-24T11:50:39.689Z,0.94